sensor_id;sensor_type;location;lat;lon;timestamp;temperature;humidity
30467;DHT22;17258;52.560;13.046;2023-03-23T00:09:24;16.80;54.90
30467;DHT22;17258;52.560;13.046;2023-03-23T00:19:25;16.70;55.00
30467;DHT22;17258;52.560;13.046;2023-03-23T00:29:25;16.60;55.10
30467;DHT22;17258;52.560;13.046;2023-03-23T00:39:27;16.60;55.10
30467;DHT22;17258;52.560;13.046;2023-03-23T00:49:28;16.50;55.10
30467;DHT22;17258;52.560;13.046;2023-03-23T00:59:29;16.40;55.20
30467;DHT22;17258;52.560;13.046;2023-03-23T01:09:30;16.30;55.20
30467;DHT22;17258;52.560;13.046;2023-03-23T01:19:30;16.30;55.20
30467;DHT22;17258;52.560;13.046;2023-03-23T01:29:31;16.30;55.30
30467;DHT22;17258;52.560;13.046;2023-03-23T01:39:35;16.20;55.30
30467;DHT22;17258;52.560;13.046;2023-03-23T01:49:40;16.20;55.30
30467;DHT22;17258;52.560;13.046;2023-03-23T01:59:47;16.20;55.40
30467;DHT22;17258;52.560;13.046;2023-03-23T02:09:51;16.20;55.60
30467;DHT22;17258;52.560;13.046;2023-03-23T02:20:10;16.20;55.70
30467;DHT22;17258;52.560;13.046;2023-03-23T02:30:43;16.20;55.80
30467;DHT22;17258;52.560;13.046;2023-03-23T02:41:02;16.30;55.90
30467;DHT22;17258;52.560;13.046;2023-03-23T02:51:04;16.40;55.80
30467;DHT22;17258;52.560;13.046;2023-03-23T03:11:37;16.60;55.80
30467;DHT22;17258;52.560;13.046;2023-03-23T03:21:45;16.70;55.80
30467;DHT22;17258;52.560;13.046;2023-03-23T03:31:49;16.70;55.80
30467;DHT22;17258;52.560;13.046;2023-03-23T03:41:50;16.80;55.80
30467;DHT22;17258;52.560;13.046;2023-03-23T03:51:51;16.70;55.70
30467;DHT22;17258;52.560;13.046;2023-03-23T04:01:52;16.60;56.50
30467;DHT22;17258;52.560;13.046;2023-03-23T04:11:54;16.60;56.00
30467;DHT22;17258;52.560;13.046;2023-03-23T04:21:55;16.50;56.10
30467;DHT22;17258;52.560;13.046;2023-03-23T04:31:56;16.50;56.30
30467;DHT22;17258;52.560;13.046;2023-03-23T04:42:01;16.40;56.20
30467;DHT22;17258;52.560;13.046;2023-03-23T04:52:02;16.40;56.40
30467;DHT22;17258;52.560;13.046;2023-03-23T05:02:05;16.30;56.50
30467;DHT22;17258;52.560;13.046;2023-03-23T05:12:08;16.30;56.60
30467;DHT22;17258;52.560;13.046;2023-03-23T05:22:09;16.20;56.70
30467;DHT22;17258;52.560;13.046;2023-03-23T05:32:12;16.20;56.90
30467;DHT22;17258;52.560;13.046;2023-03-23T05:42:13;16.10;56.90
30467;DHT22;17258;52.560;13.046;2023-03-23T05:52:14;16.00;57.00
30467;DHT22;17258;52.560;13.046;2023-03-23T06:02:14;16.00;57.10
30467;DHT22;17258;52.560;13.046;2023-03-23T06:12:16;15.90;57.30
30467;DHT22;17258;52.560;13.046;2023-03-23T06:22:21;15.90;57.40
30467;DHT22;17258;52.560;13.046;2023-03-23T06:32:22;15.90;57.70
30467;DHT22;17258;52.560;13.046;2023-03-23T06:42:25;15.80;57.80
30467;DHT22;17258;52.560;13.046;2023-03-23T06:52:26;15.80;58.10
30467;DHT22;17258;52.560;13.046;2023-03-23T07:02:26;15.80;58.30
30467;DHT22;17258;52.560;13.046;2023-03-23T07:12:28;15.80;58.40
30467;DHT22;17258;52.560;13.046;2023-03-23T07:22:29;15.90;58.70
30467;DHT22;17258;52.560;13.046;2023-03-23T07:32:29;15.90;58.70
30467;DHT22;17258;52.560;13.046;2023-03-23T07:42:30;15.90;58.90
30467;DHT22;17258;52.560;13.046;2023-03-23T07:52:31;16.00;59.10
30467;DHT22;17258;52.560;13.046;2023-03-23T08:02:32;16.10;59.30
30467;DHT22;17258;52.560;13.046;2023-03-23T08:12:33;16.20;59.40
30467;DHT22;17258;52.560;13.046;2023-03-23T08:22:34;16.30;59.40
30467;DHT22;17258;52.560;13.046;2023-03-23T08:32:36;16.40;59.50
30467;DHT22;17258;52.560;13.046;2023-03-23T08:42:38;16.50;60.10
30467;DHT22;17258;52.560;13.046;2023-03-23T08:52:40;16.70;59.70
30467;DHT22;17258;52.560;13.046;2023-03-23T09:02:41;16.80;59.70
30467;DHT22;17258;52.560;13.046;2023-03-23T09:12:44;16.90;59.70
30467;DHT22;17258;52.560;13.046;2023-03-23T09:22:48;17.00;59.70
30467;DHT22;17258;52.560;13.046;2023-03-23T09:32:50;17.20;60.00
30467;DHT22;17258;52.560;13.046;2023-03-23T09:43:06;17.40;60.30
30467;DHT22;17258;52.560;13.046;2023-03-23T09:53:22;17.70;60.80
30467;DHT22;17258;52.560;13.046;2023-03-23T10:03:43;17.90;60.50
30467;DHT22;17258;52.560;13.046;2023-03-23T10:24:11;18.30;59.60
30467;DHT22;17258;52.560;13.046;2023-03-23T10:34:21;18.50;59.70
30467;DHT22;17258;52.560;13.046;2023-03-23T10:44:25;18.70;59.70
30467;DHT22;17258;52.560;13.046;2023-03-23T10:54:31;18.80;59.50
30467;DHT22;17258;52.560;13.046;2023-03-23T11:04:35;19.10;59.20
30467;DHT22;17258;52.560;13.046;2023-03-23T11:14:36;19.10;58.90
30467;DHT22;17258;52.560;13.046;2023-03-23T11:24:47;19.20;58.80
30467;DHT22;17258;52.560;13.046;2023-03-23T11:35:00;19.30;58.80
30467;DHT22;17258;52.560;13.046;2023-03-23T11:46:02;19.40;58.60
30467;DHT22;17258;52.560;13.046;2023-03-23T11:56:06;19.50;58.40
30467;DHT22;17258;52.560;13.046;2023-03-23T12:06:12;19.60;58.20
30467;DHT22;17258;52.560;13.046;2023-03-23T12:48:07;19.90;57.70
30467;DHT22;17258;52.560;13.046;2023-03-23T12:58:38;20.00;57.80
30467;DHT22;17258;52.560;13.046;2023-03-23T13:09:15;20.30;58.40
30467;DHT22;17258;52.560;13.046;2023-03-23T13:29:59;21.00;56.00
30467;DHT22;17258;52.560;13.046;2023-03-23T13:40:24;21.40;57.40
30467;DHT22;17258;52.560;13.046;2023-03-23T13:50:27;21.70;55.30
30467;DHT22;17258;52.560;13.046;2023-03-23T14:10:56;22.00;54.40
30467;DHT22;17258;52.560;13.046;2023-03-23T14:21:04;21.90;53.30
30467;DHT22;17258;52.560;13.046;2023-03-23T14:31:16;21.80;54.00
30467;DHT22;17258;52.560;13.046;2023-03-23T14:41:19;21.60;53.80
30467;DHT22;17258;52.560;13.046;2023-03-23T14:51:20;21.50;54.30
30467;DHT22;17258;52.560;13.046;2023-03-23T15:01:27;21.50;54.50
30467;DHT22;17258;52.560;13.046;2023-03-23T15:11:32;21.60;53.80
30467;DHT22;17258;52.560;13.046;2023-03-23T15:21:45;21.60;53.90
30467;DHT22;17258;52.560;13.046;2023-03-23T15:31:58;21.70;52.20
30467;DHT22;17258;52.560;13.046;2023-03-23T15:41:59;21.70;51.10
30467;DHT22;17258;52.560;13.046;2023-03-23T15:52:00;21.60;52.00
30467;DHT22;17258;52.560;13.046;2023-03-23T16:02:01;21.40;51.90
30467;DHT22;17258;52.560;13.046;2023-03-23T16:12:02;21.20;51.30
30467;DHT22;17258;52.560;13.046;2023-03-23T16:22:03;20.90;52.10
30467;DHT22;17258;52.560;13.046;2023-03-23T16:32:03;20.50;52.60
30467;DHT22;17258;52.560;13.046;2023-03-23T16:42:04;20.20;53.10
30467;DHT22;17258;52.560;13.046;2023-03-23T16:52:05;19.90;53.30
30467;DHT22;17258;52.560;13.046;2023-03-23T17:02:06;19.70;53.70
30467;DHT22;17258;52.560;13.046;2023-03-23T17:12:06;19.40;53.80
30467;DHT22;17258;52.560;13.046;2023-03-23T17:22:07;19.20;54.20
30467;DHT22;17258;52.560;13.046;2023-03-23T17:32:08;18.90;54.30
30467;DHT22;17258;52.560;13.046;2023-03-23T17:42:09;18.70;54.30
30467;DHT22;17258;52.560;13.046;2023-03-23T17:52:10;18.50;54.50
30467;DHT22;17258;52.560;13.046;2023-03-23T18:02:11;18.20;54.80
30467;DHT22;17258;52.560;13.046;2023-03-23T18:12:13;17.90;55.20
30467;DHT22;17258;52.560;13.046;2023-03-23T18:22:13;17.80;55.50
30467;DHT22;17258;52.560;13.046;2023-03-23T18:32:14;17.70;55.70
30467;DHT22;17258;52.560;13.046;2023-03-23T18:42:16;17.60;55.80
30467;DHT22;17258;52.560;13.046;2023-03-23T18:52:17;17.50;55.90
30467;DHT22;17258;52.560;13.046;2023-03-23T19:02:18;17.50;56.10
30467;DHT22;17258;52.560;13.046;2023-03-23T19:12:19;17.40;56.20
30467;DHT22;17258;52.560;13.046;2023-03-23T19:22:21;17.30;56.40
30467;DHT22;17258;52.560;13.046;2023-03-23T19:32:22;17.30;56.50
30467;DHT22;17258;52.560;13.046;2023-03-23T19:42:23;17.20;56.70
30467;DHT22;17258;52.560;13.046;2023-03-23T19:52:24;17.20;56.80
30467;DHT22;17258;52.560;13.046;2023-03-23T20:02:25;17.10;56.90
30467;DHT22;17258;52.560;13.046;2023-03-23T20:12:25;17.20;57.10
30467;DHT22;17258;52.560;13.046;2023-03-23T20:22:26;17.10;57.10
30467;DHT22;17258;52.560;13.046;2023-03-23T20:32:31;17.20;57.20
30467;DHT22;17258;52.560;13.046;2023-03-23T20:42:33;17.10;57.40
30467;DHT22;17258;52.560;13.046;2023-03-23T20:52:34;17.10;57.40
30467;DHT22;17258;52.560;13.046;2023-03-23T21:02:36;17.10;57.40
30467;DHT22;17258;52.560;13.046;2023-03-23T21:12:38;17.10;57.50
30467;DHT22;17258;52.560;13.046;2023-03-23T21:22:39;17.00;57.50
30467;DHT22;17258;52.560;13.046;2023-03-23T21:32:40;17.00;57.60
30467;DHT22;17258;52.560;13.046;2023-03-23T21:42:41;17.00;57.60
30467;DHT22;17258;52.560;13.046;2023-03-23T21:52:44;16.80;57.40
30467;DHT22;17258;52.560;13.046;2023-03-23T22:02:45;16.70;57.40
30467;DHT22;17258;52.560;13.046;2023-03-23T22:12:45;16.60;57.40
30467;DHT22;17258;52.560;13.046;2023-03-23T22:22:49;16.50;57.50
30467;DHT22;17258;52.560;13.046;2023-03-23T22:32:49;16.30;57.50
30467;DHT22;17258;52.560;13.046;2023-03-23T22:42:50;16.20;57.60
30467;DHT22;17258;52.560;13.046;2023-03-23T22:52:51;16.00;57.60
30467;DHT22;17258;52.560;13.046;2023-03-23T23:02:51;15.90;57.70
30467;DHT22;17258;52.560;13.046;2023-03-23T23:12:52;15.80;57.90
30467;DHT22;17258;52.560;13.046;2023-03-23T23:22:53;15.70;57.90
30467;DHT22;17258;52.560;13.046;2023-03-23T23:32:54;15.60;58.00
30467;DHT22;17258;52.560;13.046;2023-03-23T23:42:56;15.40;57.90
30467;DHT22;17258;52.560;13.046;2023-03-23T23:52:56;15.40;58.00
